Time;durP1;ratioP1;P1;durP2;ratioP2;P2;SDS_P1;SDS_P2;PMS_P1;PMS_P2;Temp;Humidity;BMP_temperature;BMP_pressure;BME280_temperature;BME280_humidity;BME280_pressure;Samples;Min_cycle;Max_cycle;Signal;HPM_P1;HPM_P2
2024/02/14 00:01:12;;;;;;;;;;;;;;;26.64;17.42;98621.44;5098040;28;20293;-78
2024/02/14 00:03:38;;;;;;;;;;;;;;;26.65;17.66;98621.00;5102705;28;19972;-78
2024/02/14 00:06:05;;;;;;;;;;;;;;;26.61;17.72;98620.28;5103713;28;20365;-78
2024/02/14 00:08:31;;;;;;;;;;;;;;;26.52;17.96;98627.75;5082902;28;20005;-78
2024/02/14 00:10:57;;;;;;;;;;;;;;;26.11;18.36;98625.47;5103621;28;19928;-78
2024/02/14 00:13:23;;;;;;;;;;;;;;;26.00;18.41;98631.28;5099511;27;19924;-78
2024/02/14 00:15:51;;;;;;;;;;;;;;;25.77;18.59;98628.56;5105035;27;19927;-78
2024/02/14 00:18:17;;;;;;;;;;;;;;;26.01;18.42;98627.25;5107234;27;20281;-78
2024/02/14 00:20:43;;;;;;;;;;;;;;;26.13;18.27;98628.66;5104040;28;19928;-78
2024/02/14 00:23:09;;;;;;;;;;;;;;;25.80;18.29;98635.34;5096675;28;19920;-78
2024/02/14 00:25:35;;;;;;;;;;;;;;;25.80;18.57;98638.94;5078517;28;19924;-78
2024/02/14 00:28:03;;;;;;;;;;;;;;;26.07;18.46;98642.41;5099913;28;19927;-78
2024/02/14 00:30:29;;;;;;;;;;;;;;;26.20;18.56;98641.78;5115752;28;20018;-78
2024/02/14 00:32:55;;;;;;;;;;;;;;;26.20;18.29;98638.97;5110078;28;19920;-78
2024/02/14 00:35:22;;;;;;;;;;;;;;;26.23;18.25;98644.53;5098031;28;19967;-78
2024/02/14 00:37:48;;;;;;;;;;;;;;;26.35;18.21;98637.44;5110934;28;19926;-78
2024/02/14 00:40:14;;;;;;;;;;;;;;;26.48;18.18;98652.41;5110645;28;19927;-78
2024/02/14 00:42:40;;;;;;;;;;;;;;;26.50;17.83;98644.31;5103661;27;19974;-78
2024/02/14 00:45:08;;;;;;;;;;;;;;;26.26;18.31;98657.72;5084698;28;19926;-78
2024/02/14 00:47:35;;;;;;;;;;;;;;;26.37;18.26;98644.19;5076201;28;19928;-78
2024/02/14 00:50:03;;;;;;;;;;;;;;;26.47;18.02;98642.34;5065245;28;20288;-77
2024/02/14 00:52:29;;;;;;;;;;;;;;;26.57;17.96;98646.97;5076229;28;20370;-78
2024/02/14 00:54:55;;;;;;;;;;;;;;;26.62;17.72;98650.06;5089818;28;19924;-78
2024/02/14 00:57:25;;;;;;;;;;;;;;;26.40;18.22;98648.16;5090822;28;20388;-77
2024/02/14 00:59:52;;;;;;;;;;;;;;;26.44;17.93;98649.66;5086876;28;19920;-78
2024/02/14 01:02:18;;;;;;;;;;;;;;;26.54;18.11;98654.25;5085964;28;20371;-78
2024/02/14 01:04:44;;;;;;;;;;;;;;;26.52;17.96;98651.09;5078363;28;19924;-78
2024/02/14 01:07:10;;;;;;;;;;;;;;;26.25;17.93;98652.53;5088832;28;19959;-78
2024/02/14 01:09:36;;;;;;;;;;;;;;;26.06;18.21;98651.28;5078042;28;19956;-78
2024/02/14 01:12:02;;;;;;;;;;;;;;;26.16;18.29;98660.75;5080073;28;20270;-78
2024/02/14 01:14:28;;;;;;;;;;;;;;;26.38;17.95;98653.44;5085320;28;19948;-78
2024/02/14 01:16:56;;;;;;;;;;;;;;;26.57;18.03;98652.59;5085634;28;20463;-78
2024/02/14 01:19:23;;;;;;;;;;;;;;;26.66;18.01;98652.78;5091917;28;19920;-78
2024/02/14 01:21:49;;;;;;;;;;;;;;;26.76;17.93;98648.16;5095213;28;20396;-78
2024/02/14 01:24:16;;;;;;;;;;;;;;;26.64;18.25;98649.63;5087955;28;20279;-78
2024/02/14 01:26:42;;;;;;;;;;;;;;;26.70;18.16;98650.66;5075394;28;19932;-78
2024/02/14 01:29:09;;;;;;;;;;;;;;;26.76;18.33;98654.59;5083861;28;19928;-78
2024/02/14 01:31:35;;;;;;;;;;;;;;;26.78;18.32;98659.78;5086173;28;20436;-78
2024/02/14 01:34:01;;;;;;;;;;;;;;;25.72;19.14;98659.22;5086900;28;19927;-78
2024/02/14 01:36:30;;;;;;;;;;;;;;;25.35;19.73;98661.06;5090864;28;19985;-78
2024/02/14 01:38:56;;;;;;;;;;;;;;;25.82;18.95;98661.00;5085832;28;20338;-78
2024/02/14 01:41:22;;;;;;;;;;;;;;;26.19;18.49;98649.41;5091097;28;19924;-77
2024/02/14 01:43:49;;;;;;;;;;;;;;;26.16;18.76;98650.31;5089544;28;19928;-77
2024/02/14 01:46:16;;;;;;;;;;;;;;;26.39;18.54;98652.22;5097636;28;19920;-78
2024/02/14 01:48:42;;;;;;;;;;;;;;;26.52;18.69;98656.72;5094583;28;19920;-78
2024/02/14 01:51:11;;;;;;;;;;;;;;;26.46;18.41;98658.47;5107457;27;19965;-78
2024/02/14 01:53:38;;;;;;;;;;;;;;;26.21;18.89;98652.59;5106500;27;19920;-78
2024/02/14 01:56:05;;;;;;;;;;;;;;;26.32;18.31;98644.72;5106433;27;19934;-77
2024/02/14 01:58:32;;;;;;;;;;;;;;;26.44;18.19;98646.84;5102262;28;19920;-78
2024/02/14 02:00:58;;;;;;;;;;;;;;;26.53;18.35;98640.63;5099619;27;19965;-78
2024/02/14 02:03:25;;;;;;;;;;;;;;;26.08;18.80;98638.38;5102732;27;20439;-78
2024/02/14 02:05:54;;;;;;;;;;;;;;;26.01;18.71;98641.34;5090133;27;19920;-78
2024/02/14 02:08:21;;;;;;;;;;;;;;;26.00;18.59;98642.53;5112211;28;20286;-78
2024/02/14 02:10:47;;;;;;;;;;;;;;;25.94;18.50;98643.50;5098388;28;19924;-78
2024/02/14 02:13:15;;;;;;;;;;;;;;;25.97;18.25;98639.81;5107943;28;19924;-78
2024/02/14 02:15:44;;;;;;;;;;;;;;;26.12;18.31;98645.94;5100341;28;19924;-78
2024/02/14 02:18:10;;;;;;;;;;;;;;;26.20;18.18;98650.22;5105256;27;19920;-78
2024/02/14 02:20:36;;;;;;;;;;;;;;;26.23;18.17;98649.34;5110554;28;19926;-78
2024/02/14 02:23:02;;;;;;;;;;;;;;;26.14;18.19;98640.72;5105426;27;21342;-78
2024/02/14 02:25:29;;;;;;;;;;;;;;;26.21;18.32;98646.94;5104201;27;19967;-78
2024/02/14 02:27:58;;;;;;;;;;;;;;;26.31;18.36;98640.31;5100918;28;19916;-78
2024/02/14 02:30:25;;;;;;;;;;;;;;;26.19;18.28;98645.81;5086511;28;20306;-78
2024/02/14 02:32:51;;;;;;;;;;;;;;;26.00;18.41;98644.56;5105841;28;19955;-78
2024/02/14 02:35:19;;;;;;;;;;;;;;;26.14;18.45;98647.09;5101443;27;19920;-77
2024/02/14 02:37:47;;;;;;;;;;;;;;;26.23;18.42;98646.53;5109696;27;20345;-78
2024/02/14 02:40:14;;;;;;;;;;;;;;;26.32;18.68;98649.56;5099078;28;19980;-78
2024/02/14 02:42:40;;;;;;;;;;;;;;;26.11;18.73;98652.81;5103391;27;20531;-78
2024/02/14 02:45:06;;;;;;;;;;;;;;;26.18;18.40;98647.84;5104139;27;19928;-78
2024/02/14 02:47:32;;;;;;;;;;;;;;;26.01;18.73;98643.34;5103675;28;20427;-78
2024/02/14 02:50:01;;;;;;;;;;;;;;;26.09;18.47;98641.97;5104728;28;19927;-78
2024/02/14 02:52:27;;;;;;;;;;;;;;;26.00;18.60;98650.97;5100447;28;20441;-78
2024/02/14 02:54:54;;;;;;;;;;;;;;;25.25;19.33;98659.22;5106889;27;20301;-78
2024/02/14 02:57:20;;;;;;;;;;;;;;;25.62;19.37;98655.38;5101877;28;20358;-78
2024/02/14 02:59:47;;;;;;;;;;;;;;;25.96;18.82;98655.09;5101881;27;19928;-78
2024/02/14 03:02:16;;;;;;;;;;;;;;;26.13;18.46;98662.44;5096999;28;19916;-78
2024/02/14 03:04:42;;;;;;;;;;;;;;;26.30;18.31;98655.59;5105775;28;19924;-78
2024/02/14 03:07:08;;;;;;;;;;;;;;;26.36;18.42;98656.69;5104254;27;19934;-78
2024/02/14 03:09:35;;;;;;;;;;;;;;;26.07;18.68;98664.91;5108570;28;19915;-78
2024/02/14 03:12:02;;;;;;;;;;;;;;;25.39;19.27;98666.63;5102323;27;20403;-78
2024/02/14 03:14:32;;;;;;;;;;;;;;;25.71;18.88;98666.88;5103880;28;19920;-78
2024/02/14 03:17:02;;;;;;;;;;;;;;;25.59;19.15;98659.06;5099557;28;19963;-78
2024/02/14 03:19:28;;;;;;;;;;;;;;;25.91;18.77;98666.84;5099277;28;19920;-78
2024/02/14 03:21:55;;;;;;;;;;;;;;;26.14;18.38;98666.03;5108530;28;19916;-78
2024/02/14 03:24:21;;;;;;;;;;;;;;;26.33;18.40;98677.25;5095831;27;19923;-78
2024/02/14 03:26:47;;;;;;;;;;;;;;;26.39;18.29;98664.28;5106696;28;19924;-78
2024/02/14 03:29:16;;;;;;;;;;;;;;;25.91;18.77;98675.28;5103037;28;19939;-78
2024/02/14 03:31:43;;;;;;;;;;;;;;;26.03;18.58;98671.84;5099132;28;20301;-78
2024/02/14 03:34:10;;;;;;;;;;;;;;;26.26;18.62;98674.59;5113092;28;19936;-78
2024/02/14 03:36:37;;;;;;;;;;;;;;;26.00;18.63;98676.31;5102360;28;19931;-78
2024/02/14 03:39:04;;;;;;;;;;;;;;;26.06;18.77;98674.59;5111141;28;19981;-78
2024/02/14 03:41:30;;;;;;;;;;;;;;;26.19;18.69;98679.56;5101263;28;19919;-78
2024/02/14 03:44:00;;;;;;;;;;;;;;;25.70;19.54;98689.78;5106041;28;19998;-78
2024/02/14 03:46:27;;;;;;;;;;;;;;;25.91;18.76;98686.56;5099981;28;19920;-78
2024/02/14 03:48:56;;;;;;;;;;;;;;;26.11;18.81;98689.41;5108889;27;20006;-78
2024/02/14 03:51:25;;;;;;;;;;;;;;;25.96;18.88;98681.22;5123246;27;19915;-78
2024/02/14 03:53:51;;;;;;;;;;;;;;;25.56;19.50;98685.22;5106351;28;19920;-78
2024/02/14 03:56:17;;;;;;;;;;;;;;;25.21;19.89;98689.41;5108485;27;19963;-77
2024/02/14 03:58:43;;;;;;;;;;;;;;;24.97;20.11;98687.03;5102709;28;20372;-78
2024/02/14 04:01:09;;;;;;;;;;;;;;;25.22;19.85;98681.78;5109355;28;19982;-78
2024/02/14 04:03:35;;;;;;;;;;;;;;;25.53;18.95;98685.28;5097853;28;19926;-78
2024/02/14 04:06:01;;;;;;;;;;;;;;;25.86;18.55;98676.59;5097858;28;19920;-78
2024/02/14 04:08:27;;;;;;;;;;;;;;;26.08;18.59;98685.41;5110377;28;19976;-78
2024/02/14 04:10:56;;;;;;;;;;;;;;;26.23;18.57;98681.13;5099041;27;19920;-78
2024/02/14 04:13:22;;;;;;;;;;;;;;;26.22;18.63;98685.16;5112532;27;19981;-78
2024/02/14 04:15:48;;;;;;;;;;;;;;;25.75;18.91;98680.84;5104825;27;19964;-78
2024/02/14 04:18:15;;;;;;;;;;;;;;;25.35;19.73;98686.38;5099529;28;20445;-77
2024/02/14 04:20:42;;;;;;;;;;;;;;;25.69;19.19;98682.56;5111031;28;19920;-78
2024/02/14 04:23:08;;;;;;;;;;;;;;;25.72;18.60;98693.75;5116325;28;19920;-78
2024/02/14 04:25:35;;;;;;;;;;;;;;;25.80;18.71;98688.78;5117002;28;19919;-78
2024/02/14 04:28:02;;;;;;;;;;;;;;;26.00;18.66;98693.19;5098464;28;20292;-78
2024/02/14 04:30:28;;;;;;;;;;;;;;;25.90;18.76;98699.06;5116739;28;19922;-78
2024/02/14 04:32:54;;;;;;;;;;;;;;;25.58;19.04;98696.06;5100245;28;19967;-77
2024/02/14 04:35:21;;;;;;;;;;;;;;;25.57;19.04;98700.06;5100835;27;20309;-78
2024/02/14 04:37:48;;;;;;;;;;;;;;;25.34;19.36;98701.63;5102196;27;19972;-78
2024/02/14 04:40:15;;;;;;;;;;;;;;;25.21;19.50;98709.09;5104648;27;20324;-78
2024/02/14 04:42:41;;;;;;;;;;;;;;;25.21;19.36;98706.28;5102823;27;19919;-78
2024/02/14 04:45:08;;;;;;;;;;;;;;;25.37;19.04;98697.97;5115839;27;20479;-78
2024/02/14 04:47:34;;;;;;;;;;;;;;;25.34;19.10;98693.19;5107730;27;19981;-78
2024/02/14 04:50:00;;;;;;;;;;;;;;;24.97;19.74;98704.66;5087034;28;19922;-78
2024/02/14 04:52:26;;;;;;;;;;;;;;;24.64;19.81;98706.31;5102959;27;19919;-78
2024/02/14 04:54:52;;;;;;;;;;;;;;;24.25;19.92;98705.28;5112337;27;20389;-77
2024/02/14 04:57:20;;;;;;;;;;;;;;;24.08;20.16;98709.09;5110656;28;19912;-78
2024/02/14 04:59:45;;;;;;;;;;;;;;;24.42;19.82;98695.81;5107113;28;20380;-78
2024/02/14 05:02:11;;;;;;;;;;;;;;;24.53;19.73;98702.06;5111372;27;19912;-78
2024/02/14 05:04:39;;;;;;;;;;;;;;;24.74;19.49;98690.53;5111090;27;19966;-77
2024/02/14 05:07:05;;;;;;;;;;;;;;;24.92;19.34;98698.75;5109865;27;19974;-78
2024/02/14 05:09:31;;;;;;;;;;;;;;;24.55;19.63;98708.84;5107204;28;19912;-77
2024/02/14 05:11:57;;;;;;;;;;;;;;;24.56;19.69;98706.84;5101273;28;19920;-78
2024/02/14 05:14:23;;;;;;;;;;;;;;;24.54;19.78;98714.91;5102590;27;19916;-77
2024/02/14 05:16:49;;;;;;;;;;;;;;;24.28;20.23;98715.66;5108900;27;20316;-78
2024/02/14 05:19:15;;;;;;;;;;;;;;;24.34;19.78;98711.94;5099659;28;19916;-77
2024/02/14 05:21:41;;;;;;;;;;;;;;;24.29;19.80;98711.63;5103669;27;19999;-78
2024/02/14 05:24:08;;;;;;;;;;;;;;;24.77;19.16;98717.81;5108545;28;19916;-77
2024/02/14 05:26:34;;;;;;;;;;;;;;;25.00;19.09;98714.25;5108633;27;19935;-78
2024/02/14 05:29:00;;;;;;;;;;;;;;;24.90;18.95;98718.81;5099344;27;20006;-78
2024/02/14 05:31:41;;;;;;;;;;;;;;;25.01;19.23;98718.66;5102534;28;19927;-78
2024/02/14 05:34:08;;;;;;;;;;;;;;;25.34;18.81;98718.50;5100410;28;19951;-78
2024/02/14 05:36:34;;;;;;;;;;;;;;;25.46;18.41;98716.34;5105330;27;20396;-78
2024/02/14 05:39:00;;;;;;;;;;;;;;;25.52;18.44;98712.59;5103596;28;20002;-78
2024/02/14 05:41:26;;;;;;;;;;;;;;;25.20;18.89;98718.75;5107194;28;20339;-78
2024/02/14 05:43:52;;;;;;;;;;;;;;;24.66;19.02;98728.38;5107656;28;19920;-78
2024/02/14 05:46:20;;;;;;;;;;;;;;;24.60;19.29;98727.25;5106103;27;19924;-78
2024/02/14 05:48:48;;;;;;;;;;;;;;;24.98;18.79;98730.75;5110730;27;19916;-78
2024/02/14 05:51:14;;;;;;;;;;;;;;;25.13;19.03;98732.94;5108191;27;20018;-78
2024/02/14 05:53:40;;;;;;;;;;;;;;;25.45;18.38;98734.44;5102380;27;20006;-79
2024/02/14 05:56:06;;;;;;;;;;;;;;;25.53;18.30;98731.09;5110533;28;19989;-78
2024/02/14 05:58:32;;;;;;;;;;;;;;;25.65;18.21;98736.06;5109386;27;19920;-78
2024/02/14 06:00:58;;;;;;;;;;;;;;;25.31;18.71;98738.25;5097932;28;19965;-78
2024/02/14 06:03:25;;;;;;;;;;;;;;;24.81;19.17;98734.63;5092222;28;19924;-78
2024/02/14 06:05:51;;;;;;;;;;;;;;;24.49;19.43;98744.25;5103917;28;19924;-78
2024/02/14 06:08:17;;;;;;;;;;;;;;;24.95;19.12;98740.03;5104387;27;19928;-78
2024/02/14 06:10:43;;;;;;;;;;;;;;;25.19;18.56;98744.47;5104358;27;20408;-78
2024/02/14 06:13:09;;;;;;;;;;;;;;;25.26;18.74;98747.16;5094787;28;19920;-78
2024/02/14 06:15:35;;;;;;;;;;;;;;;25.39;18.65;98743.31;5108503;27;20431;-78
2024/02/14 06:18:01;;;;;;;;;;;;;;;25.08;18.63;98744.63;5110924;28;19927;-77
2024/02/14 06:20:27;;;;;;;;;;;;;;;24.77;19.00;98740.28;5103055;27;19920;-78
2024/02/14 06:22:54;;;;;;;;;;;;;;;24.54;19.27;98749.41;5107045;27;19923;-78
2024/02/14 06:25:20;;;;;;;;;;;;;;;24.56;19.24;98737.72;5103593;27;19924;-78
2024/02/14 06:27:46;;;;;;;;;;;;;;;24.47;19.44;98741.06;5103964;27;19916;-78
2024/02/14 06:30:13;;;;;;;;;;;;;;;24.67;19.69;98747.59;5102968;28;19965;-77
2024/02/14 06:32:39;;;;;;;;;;;;;;;25.04;18.88;98743.88;5083173;28;20339;-77
2024/02/14 06:35:05;;;;;;;;;;;;;;;25.22;18.48;98758.47;5110799;27;19919;-77
2024/02/14 06:37:31;;;;;;;;;;;;;;;25.19;18.45;98750.88;5105415;27;20018;-77
2024/02/14 06:39:57;;;;;;;;;;;;;;;25.10;18.48;98747.00;5106919;27;20302;-77
2024/02/14 06:42:23;;;;;;;;;;;;;;;25.11;18.41;98740.19;5094993;28;19924;-77
2024/02/14 06:44:50;;;;;;;;;;;;;;;25.13;18.54;98740.56;5093521;28;20400;-77
2024/02/14 06:47:16;;;;;;;;;;;;;;;25.14;18.48;98747.75;5093698;28;19999;-77
2024/02/14 06:49:42;;;;;;;;;;;;;;;25.24;18.50;98756.03;5107309;28;19923;-77
2024/02/14 06:52:08;;;;;;;;;;;;;;;25.40;18.64;98758.97;5106445;28;19923;-78
2024/02/14 06:54:34;;;;;;;;;;;;;;;25.57;18.29;98747.88;5111766;28;19927;-77
2024/02/14 06:57:00;;;;;;;;;;;;;;;25.39;18.55;98746.13;5103849;28;19927;-77
2024/02/14 06:59:26;;;;;;;;;;;;;;;25.37;18.42;98747.78;5100739;28;19920;-77
2024/02/14 07:01:54;;;;;;;;;;;;;;;25.47;18.67;98751.66;5086554;28;20421;-77
2024/02/14 07:04:25;;;;;;;;;;;;;;;25.68;18.38;98754.09;5104235;27;19919;-77
2024/02/14 07:06:52;;;;;;;;;;;;;;;25.69;18.35;98748.06;5102621;27;20440;-77
2024/02/14 07:09:18;;;;;;;;;;;;;;;25.73;18.52;98754.41;5108918;28;19982;-77
2024/02/14 07:11:45;;;;;;;;;;;;;;;25.58;19.00;98766.34;5089284;28;19930;-77
2024/02/14 07:14:11;;;;;;;;;;;;;;;25.74;18.74;98758.03;5094764;28;19945;-77
2024/02/14 07:16:37;;;;;;;;;;;;;;;25.90;18.60;98749.69;5101090;28;20374;-77
2024/02/14 07:19:03;;;;;;;;;;;;;;;25.61;18.71;98768.28;5085745;28;19926;-77
2024/02/14 07:21:30;;;;;;;;;;;;;;;25.41;19.25;98774.59;5107952;27;19920;-78
2024/02/14 07:23:56;;;;;;;;;;;;;;;25.24;19.57;98770.06;5089847;28;19920;-78
2024/02/14 07:26:22;;;;;;;;;;;;;;;25.34;18.95;98777.53;5085724;28;20361;-78
2024/02/14 07:28:48;;;;;;;;;;;;;;;25.31;19.29;98760.72;5112060;28;20010;-78
2024/02/14 07:31:14;;;;;;;;;;;;;;;25.33;19.93;98769.53;5102954;28;20309;-78
2024/02/14 07:33:40;;;;;;;;;;;;;;;25.30;19.73;98761.94;5078748;28;20388;-78
2024/02/14 07:36:06;;;;;;;;;;;;;;;25.03;20.03;98761.97;5097687;28;20082;-78
2024/02/14 07:38:32;;;;;;;;;;;;;;;24.49;20.12;98754.69;5108026;28;19921;-77
2024/02/14 07:40:58;;;;;;;;;;;;;;;24.43;20.67;98757.16;5110706;28;19920;-77
2024/02/14 07:43:24;;;;;;;;;;;;;;;23.87;20.37;98755.78;5097307;28;19920;-78
2024/02/14 07:45:51;;;;;;;;;;;;;;;23.83;21.07;98755.00;5106155;28;19942;-77
2024/02/14 07:48:17;;;;;;;;;;;;;;;23.56;21.33;98756.06;5109867;28;20376;-77
2024/02/14 07:50:43;;;;;;;;;;;;;;;24.09;20.81;98749.94;5100039;28;20293;-77
2024/02/14 07:53:09;;;;;;;;;;;;;;;24.40;20.73;98752.38;5105135;28;19922;-77
2024/02/14 07:55:35;;;;;;;;;;;;;;;24.87;20.26;98756.19;5106438;28;19955;-77
2024/02/14 07:58:01;;;;;;;;;;;;;;;24.98;19.69;98759.63;5104424;28;19966;-77
2024/02/14 08:00:27;;;;;;;;;;;;;;;25.23;19.41;98757.22;5106215;28;19920;-77
2024/02/14 08:02:53;;;;;;;;;;;;;;;25.22;19.74;98764.09;5107466;28;19927;-77
2024/02/14 08:05:19;;;;;;;;;;;;;;;25.18;19.73;98760.53;5111780;28;19923;-78
2024/02/14 08:07:46;;;;;;;;;;;;;;;25.74;18.94;98753.19;5105655;28;20326;-77
2024/02/14 08:10:12;;;;;;;;;;;;;;;26.09;18.67;98749.69;5112636;28;20022;-77
2024/02/14 08:12:38;;;;;;;;;;;;;;;26.63;18.18;98753.03;5108823;28;19924;-78
2024/02/14 08:15:06;;;;;;;;;;;;;;;26.80;18.48;98744.66;5100926;28;19931;-77
2024/02/14 08:17:33;;;;;;;;;;;;;;;26.86;18.08;98751.38;5100722;28;19920;-77
2024/02/14 08:20:00;;;;;;;;;;;;;;;26.99;18.01;98732.56;5108017;28;19935;-78
2024/02/14 08:22:27;;;;;;;;;;;;;;;27.03;18.13;98731.22;5102414;28;19928;-78
2024/02/14 08:24:53;;;;;;;;;;;;;;;27.26;17.78;98733.09;5101812;28;19969;-78
2024/02/14 08:27:19;;;;;;;;;;;;;;;27.26;17.89;98742.34;5101805;28;19920;-77
2024/02/14 08:29:45;;;;;;;;;;;;;;;27.35;17.68;98741.75;5105352;28;19926;-78
2024/02/14 08:32:11;;;;;;;;;;;;;;;27.03;16.71;98739.69;5098969;28;19970;-78
2024/02/14 08:34:37;;;;;;;;;;;;;;;27.01;17.29;98741.34;5100800;28;19920;-77
2024/02/14 08:37:03;;;;;;;;;;;;;;;27.12;16.97;98744.75;5097483;27;19923;-77
2024/02/14 08:39:30;;;;;;;;;;;;;;;27.09;17.05;98739.97;5103552;27;19920;-77
2024/02/14 08:41:56;;;;;;;;;;;;;;;27.08;16.90;98744.00;5112114;27;19987;-78
2024/02/14 08:44:22;;;;;;;;;;;;;;;27.29;17.00;98746.31;5104953;28;19959;-78
2024/02/14 08:46:49;;;;;;;;;;;;;;;27.21;16.74;98742.09;5108581;27;20334;-78
2024/02/14 08:49:15;;;;;;;;;;;;;;;27.37;15.51;98745.75;5107784;27;19920;-77
2024/02/14 08:51:43;;;;;;;;;;;;;;;27.42;15.41;98750.06;5114922;28;19945;-78
2024/02/14 08:54:10;;;;;;;;;;;;;;;27.50;15.43;98754.28;5116211;28;19916;-78
2024/02/14 08:56:36;;;;;;;;;;;;;;;27.69;15.83;98744.13;5116631;28;19966;-78
2024/02/14 08:59:02;;;;;;;;;;;;;;;27.84;15.67;98743.31;5110602;28;19920;-78
2024/02/14 09:01:29;;;;;;;;;;;;;;;27.84;15.32;98746.13;5081670;28;19920;-78
2024/02/14 09:03:55;;;;;;;;;;;;;;;27.94;15.13;98747.88;5095557;28;19973;-78
2024/02/14 09:06:21;;;;;;;;;;;;;;;27.73;14.59;98742.81;5096856;28;19916;-78
2024/02/14 09:08:48;;;;;;;;;;;;;;;27.62;15.02;98744.31;5102256;28;19964;-78
2024/02/14 09:11:14;;;;;;;;;;;;;;;26.74;15.70;98747.19;5099629;27;19924;-78
2024/02/14 09:13:40;;;;;;;;;;;;;;;26.71;15.62;98743.22;5096227;27;19927;-78
2024/02/14 09:16:07;;;;;;;;;;;;;;;25.96;16.00;98739.53;5095805;28;19920;-78
2024/02/14 09:18:35;;;;;;;;;;;;;;;26.41;16.23;98737.84;5096240;28;19920;-78
2024/02/14 09:21:03;;;;;;;;;;;;;;;26.95;15.01;98735.47;5112023;28;19920;-78
2024/02/14 09:23:29;;;;;;;;;;;;;;;27.30;14.88;98733.81;5105905;27;20272;-78
2024/02/14 09:25:57;;;;;;;;;;;;;;;27.82;14.83;98731.66;5107511;27;19932;-80
2024/02/14 09:28:23;;;;;;;;;;;;;;;27.96;14.93;98734.09;5115204;27;19919;-79
2024/02/14 09:30:49;;;;;;;;;;;;;;;27.91;15.03;98731.06;5111347;28;19938;-79
2024/02/14 09:33:15;;;;;;;;;;;;;;;28.20;13.92;98729.03;5105824;27;19946;-79
2024/02/14 09:35:44;;;;;;;;;;;;;;;28.03;14.77;98742.41;5109131;27;19916;-79
2024/02/14 09:38:12;;;;;;;;;;;;;;;27.35;15.26;98736.13;5109376;27;19920;-79
2024/02/14 09:40:40;;;;;;;;;;;;;;;27.44;15.62;98735.53;5107837;27;19927;-79
2024/02/14 09:43:11;;;;;;;;;;;;;;;27.47;15.43;98743.09;5103854;27;19931;-80
2024/02/14 09:45:39;;;;;;;;;;;;;;;27.46;15.58;98747.94;5106496;27;19920;-78
2024/02/14 09:48:07;;;;;;;;;;;;;;;26.71;15.56;98739.59;5109636;27;20410;-79
2024/02/14 09:50:34;;;;;;;;;;;;;;;25.57;16.53;98745.06;5100435;27;19920;-80
2024/02/14 09:53:00;;;;;;;;;;;;;;;25.92;15.58;98735.97;5104240;28;20270;-79
2024/02/14 09:55:26;;;;;;;;;;;;;;;26.38;15.52;98732.28;5103745;27;19928;-79
2024/02/14 09:57:52;;;;;;;;;;;;;;;26.79;15.76;98723.38;5090901;28;19943;-79
2024/02/14 10:00:19;;;;;;;;;;;;;;;27.19;16.38;98730.47;5105077;27;19923;-78
2024/02/14 10:02:45;;;;;;;;;;;;;;;27.46;15.92;98730.22;5107073;28;19931;-78
2024/02/14 10:05:11;;;;;;;;;;;;;;;27.86;15.05;98731.59;5093458;27;19916;-78
2024/02/14 10:07:41;;;;;;;;;;;;;;;28.24;14.79;98731.78;5112414;27;19920;-78
2024/02/14 10:10:07;;;;;;;;;;;;;;;28.44;14.55;98721.88;5103827;27;19919;-78
2024/02/14 10:12:33;;;;;;;;;;;;;;;28.32;14.87;98725.47;5106093;28;19919;-79
2024/02/14 10:15:01;;;;;;;;;;;;;;;28.08;14.80;98721.31;5107717;28;19920;-79
2024/02/14 10:17:27;;;;;;;;;;;;;;;28.18;15.18;98720.22;5107927;28;19916;-79
2024/02/14 10:20:04;;;;;;;;;;;;;;;28.43;14.71;98727.97;5112358;28;19919;-79
2024/02/14 10:22:35;;;;;;;;;;;;;;;28.90;14.28;98725.34;5109622;28;20010;-80
2024/02/14 10:25:03;;;;;;;;;;;;;;;29.16;13.72;98722.09;5112852;28;19924;-79
2024/02/14 10:27:32;;;;;;;;;;;;;;;28.61;14.66;98717.75;5111802;28;19920;-80
2024/02/14 10:29:59;;;;;;;;;;;;;;;28.10;15.48;98721.66;5110813;28;20020;-80
2024/02/14 10:32:25;;;;;;;;;;;;;;;27.92;15.53;98724.94;5107432;28;20055;-79
2024/02/14 10:34:51;;;;;;;;;;;;;;;28.33;14.26;98709.31;5106242;28;19916;-80
2024/02/14 10:37:19;;;;;;;;;;;;;;;28.13;14.85;98708.69;5110565;28;19930;-80
2024/02/14 10:39:47;;;;;;;;;;;;;;;28.49;14.60;98701.56;5108482;28;19916;-79
2024/02/14 10:42:13;;;;;;;;;;;;;;;28.30;14.86;98705.34;5111896;28;19915;-79
2024/02/14 10:44:39;;;;;;;;;;;;;;;28.83;14.52;98709.41;5093530;28;19985;-79
2024/02/14 10:47:10;;;;;;;;;;;;;;;29.41;14.21;98707.13;5109195;28;19916;-79
2024/02/14 10:49:39;;;;;;;;;;;;;;;28.82;13.03;98710.69;5107975;28;20368;-80
2024/02/14 10:52:06;;;;;;;;;;;;;;;26.79;15.43;98709.28;5111739;28;19985;-79
2024/02/14 10:54:34;;;;;;;;;;;;;;;27.62;15.30;98704.81;5109553;28;20381;-80
2024/02/14 10:57:04;;;;;;;;;;;;;;;28.19;15.55;98707.72;5109044;28;19993;-80
2024/02/14 10:59:33;;;;;;;;;;;;;;;29.08;14.04;98712.25;5111240;28;20300;-80
2024/02/14 11:01:59;;;;;;;;;;;;;;;28.41;14.94;98707.84;5111566;28;19951;-80
2024/02/14 11:04:25;;;;;;;;;;;;;;;28.81;14.80;98705.47;5110835;28;19916;-79
2024/02/14 11:06:54;;;;;;;;;;;;;;;29.09;14.82;98699.69;5106054;28;20011;-80
2024/02/14 11:09:20;;;;;;;;;;;;;;;29.13;14.45;98700.34;5112855;27;19966;-79
2024/02/14 11:11:49;;;;;;;;;;;;;;;28.23;14.65;98694.28;5109723;28;20384;-80
2024/02/14 11:14:16;;;;;;;;;;;;;;;28.19;15.13;98696.41;5108308;28;20395;-79
2024/02/14 11:16:44;;;;;;;;;;;;;;;28.65;14.46;98690.19;5105541;28;20010;-79
2024/02/14 11:19:11;;;;;;;;;;;;;;;28.10;14.80;98689.81;5103810;28;19973;-79
2024/02/14 11:21:42;;;;;;;;;;;;;;;27.07;14.70;98686.84;5104426;28;19916;-79
2024/02/14 11:24:12;;;;;;;;;;;;;;;27.22;15.56;98682.44;5104769;28;19981;-79
2024/02/14 11:26:48;;;;;;;;;;;;;;;27.98;14.70;98672.34;5111145;28;19924;-79
2024/02/14 11:32:22;;;;;;;;;;;;;;;28.85;14.60;98672.19;5075106;28;19961;-80
2024/02/14 11:34:55;;;;;;;;;;;;;;;28.91;14.71;98662.72;5109452;28;19924;-80
2024/02/14 11:37:27;;;;;;;;;;;;;;;29.05;13.68;98664.28;5103457;28;19923;-79
2024/02/14 11:39:54;;;;;;;;;;;;;;;28.93;13.48;98656.59;5108252;28;20485;-79
2024/02/14 11:42:21;;;;;;;;;;;;;;;29.22;13.82;98658.06;5108259;28;20383;-80
2024/02/14 11:44:47;;;;;;;;;;;;;;;29.33;14.13;98652.84;5107794;28;20313;-80
2024/02/14 11:47:13;;;;;;;;;;;;;;;29.74;12.46;98642.50;5109182;28;20007;-80
2024/02/14 11:49:39;;;;;;;;;;;;;;;29.71;13.95;98641.38;5105074;28;19920;-80
2024/02/14 11:52:09;;;;;;;;;;;;;;;29.61;13.45;98653.91;5093781;28;19934;-80
2024/02/14 11:54:35;;;;;;;;;;;;;;;28.32;13.73;98646.38;5101552;28;19928;-80
2024/02/14 11:57:02;;;;;;;;;;;;;;;28.44;14.12;98648.44;5105210;28;20288;-80
2024/02/14 11:59:28;;;;;;;;;;;;;;;29.06;13.61;98646.06;5112261;28;19920;-80
2024/02/14 12:01:57;;;;;;;;;;;;;;;29.49;13.96;98643.41;5108841;28;20397;-81
2024/02/14 12:04:24;;;;;;;;;;;;;;;29.12;14.21;98645.06;5109392;28;19927;-81
2024/02/14 12:06:53;;;;;;;;;;;;;;;29.05;13.38;98639.66;5106511;28;19943;-80
2024/02/14 12:09:20;;;;;;;;;;;;;;;29.34;13.76;98643.09;5110238;28;19920;-80
2024/02/14 12:11:46;;;;;;;;;;;;;;;29.46;13.61;98638.66;5106007;28;19924;-79
2024/02/14 12:14:13;;;;;;;;;;;;;;;29.33;14.72;98641.53;5108086;28;19963;-80
2024/02/14 12:16:40;;;;;;;;;;;;;;;29.91;12.50;98632.63;5112983;28;19916;-79
2024/02/14 12:19:14;;;;;;;;;;;;;;;29.72;13.45;98639.34;5110056;28;19927;-79
2024/02/14 12:21:40;;;;;;;;;;;;;;;28.52;16.61;98634.91;5111665;28;19919;-79
2024/02/14 12:24:10;;;;;;;;;;;;;;;27.44;17.49;98629.13;5110572;28;19930;-79
2024/02/14 12:26:37;;;;;;;;;;;;;;;27.44;16.83;98633.97;5111878;28;19965;-79
2024/02/14 12:29:06;;;;;;;;;;;;;;;27.06;16.34;98630.91;5098453;28;19916;-79
2024/02/14 12:31:33;;;;;;;;;;;;;;;28.11;14.29;98634.94;5104745;28;19920;-80
2024/02/14 12:34:01;;;;;;;;;;;;;;;28.97;13.60;98629.00;5100975;28;20303;-80
2024/02/14 12:36:32;;;;;;;;;;;;;;;29.51;14.47;98625.97;5103909;28;20319;-80
2024/02/14 12:38:58;;;;;;;;;;;;;;;27.10;14.70;98623.16;5111550;28;19962;-79
2024/02/14 12:41:29;;;;;;;;;;;;;;;25.62;18.14;98632.09;5111414;28;19989;-79
2024/02/14 12:43:56;;;;;;;;;;;;;;;24.88;19.87;98633.41;5087671;28;20288;-79
2024/02/14 12:46:22;;;;;;;;;;;;;;;25.45;22.22;98631.19;5111964;28;19920;-80
2024/02/14 12:48:48;;;;;;;;;;;;;;;25.71;15.99;98623.88;5110081;28;19928;-79